createdAt,value
2023-03-16T00:00:25.983Z,1.41
2023-03-16T00:01:15.541Z,1.42
2023-03-16T00:02:05.619Z,1.46
2023-03-16T00:02:55.608Z,1.45
2023-03-16T00:03:45.684Z,1.39
2023-03-16T00:04:35.744Z,1.42
2023-03-16T00:05:25.767Z,1.37
2023-03-16T00:06:15.845Z,1.40
2023-03-16T00:07:05.899Z,1.40
2023-03-16T00:07:55.937Z,1.40
2023-03-16T00:08:45.965Z,1.36
2023-03-16T00:09:36.321Z,1.39
2023-03-16T00:10:26.659Z,1.35
2023-03-16T00:11:16.420Z,1.35
2023-03-16T00:12:06.465Z,1.33
2023-03-16T00:12:56.512Z,1.34
2023-03-16T00:13:47.242Z,1.32
2023-03-16T00:14:36.589Z,1.33
2023-03-16T00:15:26.631Z,1.36
2023-03-16T00:16:16.778Z,1.32
2023-03-16T00:17:06.800Z,1.35
2023-03-16T00:17:56.820Z,1.38
2023-03-16T00:18:46.839Z,1.30
2023-03-16T00:19:36.919Z,1.38
2023-03-16T00:20:27.174Z,1.35
2023-03-16T00:21:17.021Z,1.37
2023-03-16T00:22:07.101Z,1.37
2023-03-16T00:22:57.138Z,1.39
2023-03-16T00:23:47.166Z,1.39
2023-03-16T00:24:37.248Z,1.39
2023-03-16T00:25:27.539Z,1.42
2023-03-16T00:26:17.599Z,1.39
2023-03-16T00:27:07.646Z,1.42
2023-03-16T00:27:57.662Z,1.44
2023-03-16T00:28:47.689Z,1.43
2023-03-16T00:29:37.780Z,1.47
2023-03-16T00:30:28.121Z,1.43
2023-03-16T00:31:17.930Z,1.46
2023-03-16T00:32:08.034Z,1.48
2023-03-16T00:32:58.142Z,1.51
2023-03-16T00:33:48.128Z,1.45
2023-03-16T00:34:38.205Z,1.45
2023-03-16T00:35:28.239Z,1.44
2023-03-16T00:36:18.286Z,1.43
2023-03-16T00:37:08.363Z,1.45
2023-03-16T00:37:58.365Z,1.44
2023-03-16T00:38:48.436Z,1.48
2023-03-16T00:39:38.519Z,1.51
2023-03-16T00:40:29.073Z,1.49
2023-03-16T00:41:18.647Z,1.53
2023-03-16T00:42:08.663Z,1.51
2023-03-16T00:42:58.714Z,1.53
2023-03-16T00:43:48.737Z,1.51
2023-03-16T00:44:38.779Z,1.52
2023-03-16T00:45:28.930Z,1.52
2023-03-16T00:46:18.976Z,1.55
2023-03-16T00:47:08.988Z,1.54
2023-03-16T00:47:59.037Z,1.52
2023-03-16T00:48:49.185Z,1.52
2023-03-16T00:49:39.126Z,1.55
2023-03-16T00:50:29.670Z,1.53
2023-03-16T00:51:19.211Z,1.53
2023-03-16T00:52:09.268Z,1.49
2023-03-16T00:52:59.294Z,1.52
2023-03-16T00:53:49.324Z,1.52
2023-03-16T00:54:39.404Z,1.49
2023-03-16T00:55:29.438Z,1.47
2023-03-16T00:56:19.523Z,1.45
2023-03-16T00:57:09.560Z,1.45
2023-03-16T00:57:59.608Z,1.46
2023-03-16T00:58:49.639Z,1.46
2023-03-16T00:59:39.686Z,1.47
2023-03-16T01:00:29.813Z,1.47
2023-03-16T01:01:19.897Z,1.49
2023-03-16T01:02:09.861Z,1.52
2023-03-16T01:02:59.988Z,1.48
2023-03-16T01:03:50.015Z,1.48
2023-03-16T01:04:40.114Z,1.50
2023-03-16T01:05:30.068Z,1.47
2023-03-16T01:06:20.115Z,1.46
2023-03-16T01:07:10.161Z,1.48
2023-03-16T01:08:00.209Z,1.52
2023-03-16T01:08:50.241Z,1.51
2023-03-16T01:09:40.328Z,1.54
2023-03-16T01:10:30.573Z,1.56
2023-03-16T01:11:20.456Z,1.54
2023-03-16T01:12:10.497Z,1.57
2023-03-16T01:13:00.555Z,1.54
2023-03-16T01:13:50.582Z,1.53
2023-03-16T01:14:40.657Z,1.54
2023-03-16T01:15:30.719Z,1.54
2023-03-16T01:16:20.833Z,1.57
2023-03-16T01:17:10.969Z,1.53
2023-03-16T01:18:00.890Z,1.57
2023-03-16T01:18:50.927Z,1.52
2023-03-16T01:19:40.964Z,1.50
2023-03-16T01:20:31.024Z,1.51
2023-03-16T01:21:21.044Z,1.55
2023-03-16T01:22:11.107Z,1.52
2023-03-16T01:23:01.192Z,1.52
2023-03-16T01:23:51.227Z,1.56
2023-03-16T01:24:41.292Z,1.58
2023-03-16T01:25:31.322Z,1.61
2023-03-16T01:26:21.403Z,1.65
2023-03-16T01:27:11.460Z,1.62
2023-03-16T01:28:01.552Z,1.64
2023-03-16T01:28:51.541Z,1.69
2023-03-16T01:29:41.589Z,1.63
2023-03-16T01:30:31.661Z,1.67
2023-03-16T01:31:21.748Z,1.69
2023-03-16T01:32:11.717Z,1.64
2023-03-16T01:33:01.850Z,1.71
2023-03-16T01:33:51.795Z,1.74
2023-03-16T01:34:41.878Z,1.74
2023-03-16T01:35:32.028Z,1.70
2023-03-16T01:36:21.984Z,1.68
2023-03-16T01:37:12.005Z,1.63
2023-03-16T01:38:02.040Z,1.65
2023-03-16T01:38:52.083Z,1.65
2023-03-16T01:39:42.176Z,1.68
2023-03-16T01:40:32.186Z,1.64
2023-03-16T01:41:22.262Z,1.61
2023-03-16T01:42:12.324Z,1.62
2023-03-16T01:43:02.402Z,1.61
2023-03-16T01:43:52.431Z,1.56
2023-03-16T01:44:42.509Z,1.56
2023-03-16T01:45:32.802Z,1.61
2023-03-16T01:46:22.933Z,1.60
2023-03-16T01:47:12.890Z,1.59
2023-03-16T01:48:02.937Z,1.59
2023-03-16T01:48:52.978Z,1.58
2023-03-16T01:49:43.009Z,1.58
2023-03-16T01:50:33.043Z,1.60
2023-03-16T01:51:23.083Z,1.59
2023-03-16T01:52:13.201Z,1.60
2023-03-16T01:53:03.216Z,1.56
2023-03-16T01:53:53.265Z,1.48
2023-03-16T01:54:43.297Z,1.52
2023-03-16T01:55:33.336Z,1.47
2023-03-16T01:56:23.380Z,1.51
2023-03-16T01:57:13.462Z,1.52
2023-03-16T01:58:03.506Z,1.53
2023-03-16T01:58:53.582Z,1.51
2023-03-16T01:59:43.645Z,1.51
2023-03-16T02:00:33.663Z,1.50
2023-03-16T02:01:23.762Z,1.50
2023-03-16T02:02:13.779Z,1.48
2023-03-16T02:03:03.814Z,1.49
2023-03-16T02:03:53.848Z,1.51
2023-03-16T02:04:43.913Z,1.52
2023-03-16T02:05:33.955Z,1.42
2023-03-16T02:06:24.041Z,1.50
2023-03-16T02:07:14.104Z,1.52
2023-03-16T02:08:04.162Z,1.53
2023-03-16T02:08:54.157Z,1.49
2023-03-16T02:09:44.247Z,1.53
2023-03-16T02:10:34.274Z,1.52
2023-03-16T02:11:24.328Z,1.51
2023-03-16T02:12:14.411Z,1.56
2023-03-16T02:13:04.465Z,1.51
2023-03-16T02:13:54.493Z,1.58
2023-03-16T02:14:44.533Z,1.52
2023-03-16T02:15:34.620Z,1.48
2023-03-16T02:16:24.627Z,1.54
2023-03-16T02:17:14.666Z,1.55
2023-03-16T02:18:04.703Z,1.57
2023-03-16T02:18:54.788Z,1.56
2023-03-16T02:19:44.868Z,1.52
2023-03-16T02:20:34.899Z,1.50
2023-03-16T02:21:24.946Z,1.48
2023-03-16T02:22:14.996Z,1.46
2023-03-16T02:23:05.035Z,1.44
2023-03-16T02:23:55.098Z,1.46
2023-03-16T02:24:45.116Z,1.51
2023-03-16T02:25:35.196Z,1.52
2023-03-16T02:26:25.236Z,1.55
2023-03-16T02:27:15.317Z,1.56
2023-03-16T02:28:05.326Z,1.53
2023-03-16T02:28:55.366Z,1.51
2023-03-16T02:29:45.438Z,1.50
2023-03-16T02:30:35.483Z,1.53
2023-03-16T02:31:25.589Z,1.54
2023-03-16T02:32:15.640Z,1.56
2023-03-16T02:33:05.696Z,1.57
2023-03-16T02:33:55.727Z,1.52
2023-03-16T02:34:45.809Z,1.54
2023-03-16T02:35:35.959Z,1.57
2023-03-16T02:36:27.238Z,1.60
2023-03-16T02:37:15.982Z,1.62
2023-03-16T02:38:06.005Z,1.58
2023-03-16T02:38:56.078Z,1.58
2023-03-16T02:39:46.142Z,1.48
2023-03-16T02:40:36.163Z,1.50
2023-03-16T02:41:26.193Z,1.50
2023-03-16T02:42:16.275Z,1.51
2023-03-16T02:43:06.320Z,1.52
2023-03-16T02:43:56.356Z,1.44
2023-03-16T02:44:46.412Z,1.47
2023-03-16T02:45:36.445Z,1.49
2023-03-16T02:46:26.546Z,1.49
2023-03-16T02:47:16.600Z,1.49
2023-03-16T02:48:06.613Z,1.44
2023-03-16T02:48:56.647Z,1.51
2023-03-16T02:49:46.701Z,1.54
2023-03-16T02:50:36.733Z,1.53
2023-03-16T02:51:26.786Z,1.50
2023-03-16T02:52:16.877Z,1.47
2023-03-16T02:53:06.909Z,1.50
2023-03-16T02:53:56.954Z,1.49
2023-03-16T02:54:47.006Z,1.48
2023-03-16T02:55:37.055Z,1.52
2023-03-16T02:56:27.096Z,1.51
2023-03-16T02:57:17.124Z,1.50
2023-03-16T02:58:07.170Z,1.49
2023-03-16T02:58:57.247Z,1.53
2023-03-16T02:59:47.336Z,1.50
2023-03-16T03:00:37.363Z,1.51
2023-03-16T03:01:27.400Z,1.49
2023-03-16T03:02:17.462Z,1.46
2023-03-16T03:03:07.540Z,1.48
2023-03-16T03:03:57.543Z,1.50
2023-03-16T03:04:47.589Z,1.53
2023-03-16T03:05:37.669Z,1.52
2023-03-16T03:06:27.704Z,1.51
2023-03-16T03:07:17.746Z,1.44
2023-03-16T03:08:07.792Z,1.49
2023-03-16T03:08:57.829Z,1.48
2023-03-16T03:09:47.883Z,1.49
2023-03-16T03:10:37.939Z,1.50
2023-03-16T03:11:28.036Z,1.55
2023-03-16T03:12:18.082Z,1.56
2023-03-16T03:13:08.129Z,1.54
2023-03-16T03:13:58.164Z,1.52
2023-03-16T03:14:48.240Z,1.51
2023-03-16T03:15:38.280Z,1.47
2023-03-16T03:16:28.439Z,1.46
2023-03-16T03:17:18.381Z,1.46
2023-03-16T03:18:08.412Z,1.44
2023-03-16T03:18:58.489Z,1.43
2023-03-16T03:19:48.522Z,1.47
2023-03-16T03:20:38.567Z,1.52
2023-03-16T03:21:28.614Z,1.53
2023-03-16T03:22:18.676Z,1.54
2023-03-16T03:23:08.704Z,1.48
2023-03-16T03:23:58.728Z,1.47
2023-03-16T03:24:48.772Z,1.49
2023-03-16T03:25:38.850Z,1.53
2023-03-16T03:26:28.916Z,1.51
2023-03-16T03:27:19.008Z,1.54
2023-03-16T03:28:09.036Z,1.56
2023-03-16T03:28:59.064Z,1.52
2023-03-16T03:29:49.149Z,1.51
2023-03-16T03:30:39.182Z,1.59
2023-03-16T03:31:29.269Z,1.47
2023-03-16T03:32:19.322Z,1.50
2023-03-16T03:33:09.444Z,1.51
2023-03-16T03:33:59.399Z,1.56
2023-03-16T03:34:49.439Z,1.51
2023-03-16T03:35:39.539Z,1.51
2023-03-16T03:36:29.547Z,1.53
2023-03-16T03:37:19.596Z,1.49
2023-03-16T03:38:09.636Z,1.50
2023-03-16T03:38:59.709Z,1.54
2023-03-16T03:39:49.752Z,1.50
2023-03-16T03:40:39.799Z,1.50
2023-03-16T03:41:29.832Z,1.50
2023-03-16T03:42:19.891Z,1.48
2023-03-16T03:43:09.950Z,1.54
2023-03-16T03:43:59.981Z,1.53
2023-03-16T03:44:50.023Z,1.53
2023-03-16T03:45:40.168Z,1.52
2023-03-16T03:46:30.415Z,1.50
2023-03-16T03:47:20.239Z,1.48
2023-03-16T03:48:10.280Z,1.50
2023-03-16T03:49:00.308Z,1.49
2023-03-16T03:49:50.360Z,1.49
2023-03-16T03:50:40.393Z,1.51
2023-03-16T03:51:30.447Z,1.51
2023-03-16T03:52:20.580Z,1.49
2023-03-16T03:53:10.632Z,1.51
2023-03-16T03:54:00.727Z,1.49
2023-03-16T03:54:50.716Z,1.54
2023-03-16T03:55:40.747Z,1.58
2023-03-16T03:56:30.789Z,1.54
2023-03-16T03:57:21.950Z,1.58
2023-03-16T03:58:10.906Z,1.55
2023-03-16T03:59:00.963Z,1.53
2023-03-16T03:59:50.985Z,1.52
2023-03-16T04:00:41.055Z,1.51
2023-03-16T04:01:31.144Z,1.49
2023-03-16T04:02:21.399Z,1.50
2023-03-16T04:03:11.484Z,1.48
2023-03-16T04:04:01.278Z,1.49
2023-03-16T04:04:51.366Z,1.53
2023-03-16T04:05:41.408Z,1.48
2023-03-16T04:06:31.456Z,1.48
2023-03-16T04:07:21.503Z,1.52
2023-03-16T04:08:11.545Z,1.51
2023-03-16T04:09:01.585Z,1.49
2023-03-16T04:09:51.635Z,1.47
2023-03-16T04:10:41.669Z,1.47
2023-03-16T04:11:31.792Z,1.49
2023-03-16T04:12:21.815Z,1.52
2023-03-16T04:13:11.861Z,1.52
2023-03-16T04:14:01.904Z,1.53
2023-03-16T04:14:51.959Z,1.50
2023-03-16T04:15:41.968Z,1.51
2023-03-16T04:16:32.041Z,1.53
2023-03-16T04:17:22.097Z,1.50
2023-03-16T04:18:12.227Z,1.57
2023-03-16T04:19:02.267Z,1.54
2023-03-16T04:19:52.318Z,1.51
2023-03-16T04:20:42.359Z,1.52
2023-03-16T04:21:32.446Z,1.53
2023-03-16T04:22:22.485Z,1.57
2023-03-16T04:23:12.543Z,1.54
2023-03-16T04:24:02.569Z,1.53
2023-03-16T04:24:52.729Z,1.57
2023-03-16T04:25:42.761Z,1.55
2023-03-16T04:26:32.808Z,1.58
2023-03-16T04:27:22.871Z,1.55
2023-03-16T04:28:12.908Z,1.57
2023-03-16T04:29:02.952Z,1.55
2023-03-16T04:29:53.035Z,1.60
2023-03-16T04:30:43.177Z,1.62
2023-03-16T04:31:33.158Z,1.55
2023-03-16T04:32:23.217Z,1.58
2023-03-16T04:33:13.243Z,1.59
2023-03-16T04:34:03.279Z,1.59
2023-03-16T04:34:53.336Z,1.54
2023-03-16T04:35:43.380Z,1.58
2023-03-16T04:36:33.443Z,1.58
2023-03-16T04:37:23.490Z,1.55
2023-03-16T04:38:13.591Z,1.57
2023-03-16T04:39:03.617Z,1.61
2023-03-16T04:39:53.659Z,1.64
2023-03-16T04:40:43.716Z,1.60
2023-03-16T04:41:33.764Z,1.55
2023-03-16T04:42:23.809Z,1.56
2023-03-16T04:43:13.883Z,1.58
2023-03-16T04:44:03.883Z,1.59
2023-03-16T04:44:53.979Z,1.58
2023-03-16T04:45:44.001Z,1.56
2023-03-16T04:46:34.131Z,1.59
2023-03-16T04:47:24.085Z,1.58
2023-03-16T04:48:14.132Z,1.57
2023-03-16T04:49:04.163Z,1.61
2023-03-16T04:49:54.246Z,1.55
2023-03-16T04:50:44.281Z,1.53
2023-03-16T04:51:34.329Z,1.56
2023-03-16T04:52:24.383Z,1.58
2023-03-16T04:53:14.429Z,1.62
2023-03-16T04:54:04.474Z,1.60
2023-03-16T04:54:54.510Z,1.63
2023-03-16T04:55:44.544Z,1.65
2023-03-16T04:56:34.590Z,1.64
2023-03-16T04:57:24.640Z,1.59
2023-03-16T04:58:14.740Z,1.70
2023-03-16T04:59:04.756Z,1.71
2023-03-16T04:59:54.801Z,1.71
2023-03-16T05:00:44.835Z,1.64
2023-03-16T05:01:34.940Z,1.63
2023-03-16T05:02:24.966Z,1.60
2023-03-16T05:03:14.979Z,1.57
2023-03-16T05:04:05.021Z,1.63
2023-03-16T05:04:55.117Z,1.65
2023-03-16T05:05:45.244Z,1.70
2023-03-16T05:06:35.230Z,1.70
2023-03-16T05:07:25.276Z,1.75
2023-03-16T05:08:15.322Z,1.68
2023-03-16T05:09:05.360Z,1.65
2023-03-16T05:09:55.413Z,1.64
2023-03-16T05:10:45.440Z,1.63
2023-03-16T05:11:35.524Z,1.64
2023-03-16T05:12:25.580Z,1.64
2023-03-16T05:13:15.622Z,1.61
2023-03-16T05:14:05.665Z,1.66
2023-03-16T05:14:55.707Z,1.65
2023-03-16T05:15:45.857Z,1.64
2023-03-16T05:16:35.798Z,1.65
2023-03-16T05:17:25.854Z,1.57
2023-03-16T05:18:15.959Z,1.62
2023-03-16T05:19:05.983Z,1.62
2023-03-16T05:19:56.028Z,1.68
2023-03-16T05:20:46.054Z,1.74
2023-03-16T05:21:36.094Z,1.77
2023-03-16T05:22:26.172Z,1.70
2023-03-16T05:23:16.205Z,1.67
2023-03-16T05:24:06.246Z,1.61
2023-03-16T05:24:56.378Z,1.66
2023-03-16T05:25:47.259Z,1.69
2023-03-16T05:26:36.478Z,1.64
2023-03-16T05:27:26.542Z,1.66
2023-03-16T05:28:16.587Z,1.63
2023-03-16T05:29:06.620Z,1.58
2023-03-16T05:29:56.657Z,1.61
2023-03-16T05:30:46.777Z,1.63
2023-03-16T05:31:36.888Z,1.69
2023-03-16T05:32:26.924Z,1.64
2023-03-16T05:33:16.950Z,1.67
2023-03-16T05:34:07.014Z,1.66
2023-03-16T05:34:57.065Z,1.63
2023-03-16T05:35:47.123Z,1.64
2023-03-16T05:36:37.179Z,1.62
2023-03-16T05:37:27.230Z,1.61
2023-03-16T05:38:17.271Z,1.65
2023-03-16T05:39:07.342Z,1.64
2023-03-16T05:39:57.418Z,1.63
2023-03-16T05:40:47.485Z,1.62
2023-03-16T05:41:37.573Z,1.63
2023-03-16T05:42:27.617Z,1.62
2023-03-16T05:43:17.654Z,1.66
2023-03-16T05:44:07.698Z,1.62
2023-03-16T05:44:57.734Z,1.64
2023-03-16T05:45:48.034Z,1.68
2023-03-16T05:46:38.153Z,1.66
2023-03-16T05:47:28.141Z,1.73
2023-03-16T05:48:18.180Z,1.74
2023-03-16T05:49:08.220Z,1.74
2023-03-16T05:49:58.287Z,1.75
2023-03-16T05:50:48.296Z,1.71
2023-03-16T05:51:38.387Z,1.69
2023-03-16T05:52:28.506Z,1.75
2023-03-16T05:53:18.519Z,1.71
2023-03-16T05:54:08.560Z,1.72
2023-03-16T05:54:58.631Z,1.76
2023-03-16T05:55:48.651Z,1.77
2023-03-16T05:56:38.706Z,1.75
2023-03-16T05:57:28.759Z,1.72
2023-03-16T05:58:18.808Z,1.72
2023-03-16T05:59:08.888Z,1.74
2023-03-16T05:59:58.920Z,1.69
2023-03-16T06:00:48.958Z,1.73
2023-03-16T06:01:39.003Z,1.66
2023-03-16T06:02:29.076Z,1.66
2023-03-16T06:03:19.136Z,1.67
2023-03-16T06:04:09.194Z,1.66
2023-03-16T06:04:59.215Z,1.72
2023-03-16T06:05:49.311Z,1.71
2023-03-16T06:06:39.357Z,1.68
2023-03-16T06:07:29.387Z,1.66
2023-03-16T06:08:19.430Z,1.74
2023-03-16T06:09:09.472Z,1.72
2023-03-16T06:09:59.508Z,1.68
2023-03-16T06:10:49.543Z,1.67
2023-03-16T06:11:39.590Z,1.68
2023-03-16T06:12:29.735Z,1.64
2023-03-16T06:13:19.781Z,1.70
2023-03-16T06:14:09.816Z,1.71
2023-03-16T06:14:59.866Z,1.67
2023-03-16T06:15:50.008Z,1.68
2023-03-16T06:16:40.025Z,1.65
2023-03-16T06:17:30.000Z,1.66
2023-03-16T06:18:20.037Z,1.70
2023-03-16T06:19:10.116Z,1.67
2023-03-16T06:20:00.226Z,1.64
2023-03-16T06:20:50.207Z,1.66
2023-03-16T06:21:40.336Z,1.64
2023-03-16T06:22:30.417Z,1.71
2023-03-16T06:23:20.394Z,1.69
2023-03-16T06:24:10.428Z,1.63
2023-03-16T06:25:00.453Z,1.64
2023-03-16T06:25:50.570Z,1.66
2023-03-16T06:26:40.625Z,1.66
2023-03-16T06:27:30.685Z,1.70
2023-03-16T06:28:20.720Z,1.65
2023-03-16T06:29:10.767Z,1.64
2023-03-16T06:30:00.829Z,1.62
2023-03-16T06:30:50.851Z,1.68
2023-03-16T06:31:41.056Z,1.69
2023-03-16T06:32:31.048Z,1.69
2023-03-16T06:33:21.056Z,1.70
2023-03-16T06:34:11.091Z,1.71
2023-03-16T06:35:01.136Z,1.68
2023-03-16T06:35:51.227Z,1.73
2023-03-16T06:36:41.219Z,1.72
2023-03-16T06:37:31.307Z,1.71
2023-03-16T06:38:21.320Z,1.68
2023-03-16T06:39:11.404Z,1.72
2023-03-16T06:40:01.454Z,1.70
2023-03-16T06:40:51.480Z,1.70
2023-03-16T06:41:41.522Z,1.74
2023-03-16T06:42:31.575Z,1.69
2023-03-16T06:43:21.614Z,1.68
2023-03-16T06:44:11.662Z,1.71
2023-03-16T06:45:01.737Z,1.66
2023-03-16T06:45:51.788Z,1.67
2023-03-16T06:46:41.865Z,1.67
2023-03-16T06:47:31.954Z,1.70
2023-03-16T06:48:21.946Z,1.61
2023-03-16T06:49:11.977Z,1.67
2023-03-16T06:50:02.106Z,1.66
2023-03-16T06:50:52.116Z,1.75
2023-03-16T06:51:42.146Z,1.67
2023-03-16T06:52:32.205Z,1.74
2023-03-16T06:53:22.267Z,1.63
2023-03-16T06:54:12.277Z,1.67
2023-03-16T06:55:02.371Z,1.65
2023-03-16T06:55:52.403Z,1.64
2023-03-16T06:56:42.451Z,1.59
2023-03-16T06:57:32.514Z,1.62
2023-03-16T06:58:22.551Z,1.65
2023-03-16T06:59:12.652Z,1.57
2023-03-16T07:00:02.711Z,1.53
2023-03-16T07:00:52.766Z,1.55
2023-03-16T07:01:42.782Z,1.55
2023-03-16T07:02:32.832Z,1.53
2023-03-16T07:03:22.886Z,1.54
2023-03-16T07:04:13.012Z,1.52
2023-03-16T07:05:02.954Z,1.55
2023-03-16T07:05:53.079Z,1.54
2023-03-16T07:06:43.132Z,1.50
2023-03-16T07:07:33.173Z,1.49
2023-03-16T07:08:23.218Z,1.54
2023-03-16T07:09:13.275Z,1.64
2023-03-16T07:10:03.303Z,1.58
2023-03-16T07:10:53.336Z,1.55
2023-03-16T07:11:43.387Z,1.54
2023-03-16T07:12:33.513Z,1.49
2023-03-16T07:13:23.514Z,1.54
2023-03-16T07:14:13.557Z,1.56
2023-03-16T07:15:03.627Z,1.52
2023-03-16T07:15:53.701Z,1.62
2023-03-16T07:16:43.866Z,1.64
2023-03-16T07:17:33.783Z,1.61
2023-03-16T07:18:23.815Z,1.61
2023-03-16T07:19:13.916Z,1.51
2023-03-16T07:20:03.960Z,1.50
2023-03-16T07:20:54.004Z,1.47
2023-03-16T07:21:44.038Z,1.60
2023-03-16T07:22:34.072Z,1.56
2023-03-16T07:23:24.118Z,1.59
2023-03-16T07:24:14.190Z,1.66
2023-03-16T07:25:04.272Z,1.54
2023-03-16T07:25:54.327Z,1.58
2023-03-16T07:26:44.364Z,1.61
2023-03-16T07:27:34.399Z,1.58
2023-03-16T07:28:24.435Z,1.54
2023-03-16T07:29:14.495Z,1.68
2023-03-16T07:30:04.547Z,1.64
2023-03-16T07:31:03.474Z,1.60
2023-03-16T07:31:45.694Z,1.61
2023-03-16T07:32:34.763Z,1.60
2023-03-16T07:33:24.763Z,1.62
2023-03-16T07:34:14.846Z,1.63
2023-03-16T07:35:04.883Z,1.62
2023-03-16T07:35:54.980Z,1.58
2023-03-16T07:36:44.989Z,1.59
2023-03-16T07:37:35.250Z,1.55
2023-03-16T07:38:25.338Z,1.63
2023-03-16T07:39:15.348Z,1.76
2023-03-16T07:40:05.396Z,1.75
2023-03-16T07:40:55.449Z,1.71
2023-03-16T07:41:45.466Z,1.62
2023-03-16T07:42:35.538Z,1.55
2023-03-16T07:43:25.544Z,1.60
2023-03-16T07:44:15.640Z,1.61
2023-03-16T07:45:05.693Z,1.61
2023-03-16T07:45:55.751Z,1.71
2023-03-16T07:46:45.752Z,1.64
2023-03-16T07:47:35.821Z,1.54
2023-03-16T07:48:25.861Z,1.53
2023-03-16T07:49:15.965Z,1.47
2023-03-16T07:50:06.000Z,1.53
2023-03-16T07:50:56.081Z,1.49
2023-03-16T07:51:46.111Z,1.50
2023-03-16T07:52:37.547Z,1.45
2023-03-16T07:53:26.245Z,1.50
2023-03-16T07:54:16.289Z,1.48
2023-03-16T07:55:06.326Z,1.53
2023-03-16T07:55:56.363Z,1.56
2023-03-16T07:56:49.513Z,1.47
2023-03-16T07:57:36.452Z,1.42
2023-03-16T07:58:26.525Z,1.48
2023-03-16T07:59:16.637Z,1.49
2023-03-16T08:00:06.647Z,1.53
2023-03-16T08:00:56.985Z,1.56
2023-03-16T08:01:47.052Z,1.48
2023-03-16T08:02:37.140Z,1.47
2023-03-16T08:03:27.194Z,1.47
2023-03-16T08:04:17.222Z,1.55
2023-03-16T08:05:07.259Z,1.53
2023-03-16T08:05:57.301Z,1.54
2023-03-16T08:06:47.332Z,1.58
2023-03-16T08:07:37.417Z,1.59
2023-03-16T08:08:27.452Z,1.53
2023-03-16T08:09:17.518Z,1.43
2023-03-16T08:10:07.558Z,1.55
2023-03-16T08:10:57.667Z,1.55
2023-03-16T08:11:47.696Z,1.56
2023-03-16T08:12:37.841Z,1.51
2023-03-16T08:13:27.817Z,1.44
2023-03-16T08:14:17.902Z,1.49
2023-03-16T08:15:07.969Z,1.46
2023-03-16T08:15:58.016Z,1.44
2023-03-16T08:16:48.019Z,1.47
2023-03-16T08:17:38.073Z,1.40
2023-03-16T08:18:28.097Z,1.32
2023-03-16T08:19:18.225Z,1.38
2023-03-16T08:20:08.213Z,1.37
2023-03-16T08:20:58.277Z,1.40
2023-03-16T08:22:00.765Z,1.43
2023-03-16T08:22:39.394Z,1.43
2023-03-16T08:23:28.437Z,1.41
2023-03-16T08:24:18.527Z,1.43
2023-03-16T08:25:08.548Z,1.46
2023-03-16T08:25:58.669Z,1.50
2023-03-16T08:26:48.693Z,1.50
2023-03-16T08:27:38.770Z,1.49
2023-03-16T08:28:28.981Z,1.44
2023-03-16T08:29:18.976Z,1.37
2023-03-16T08:30:09.004Z,1.46
2023-03-16T08:30:59.132Z,1.57
2023-03-16T08:31:49.117Z,1.61
2023-03-16T08:32:39.192Z,1.47
2023-03-16T08:33:29.200Z,1.37
2023-03-16T08:34:19.251Z,1.42
2023-03-16T08:35:09.329Z,1.37
2023-03-16T08:35:59.413Z,1.37
2023-03-16T08:36:49.415Z,1.40
2023-03-16T08:37:39.451Z,1.44
2023-03-16T08:38:29.494Z,1.41
2023-03-16T08:39:19.595Z,1.44
2023-03-16T08:40:09.632Z,1.38
2023-03-16T08:40:59.671Z,1.36
2023-03-16T08:41:49.751Z,1.36
2023-03-16T08:42:39.789Z,1.43
2023-03-16T08:43:29.820Z,1.41
2023-03-16T08:44:19.905Z,1.42
2023-03-16T08:45:12.365Z,1.41
2023-03-16T08:46:00.041Z,1.40
2023-03-16T08:46:50.055Z,1.35
2023-03-16T08:47:40.094Z,1.33
2023-03-16T08:48:30.133Z,1.26
2023-03-16T08:49:20.223Z,1.41
2023-03-16T08:50:10.251Z,1.40
2023-03-16T08:51:00.285Z,1.42
2023-03-16T08:51:50.318Z,1.52
2023-03-16T08:52:40.353Z,1.50
2023-03-16T08:53:30.393Z,1.46
2023-03-16T08:54:20.445Z,1.48
2023-03-16T08:55:10.490Z,1.45
2023-03-16T08:56:00.562Z,1.50
2023-03-16T08:56:50.588Z,1.45
2023-03-16T08:57:40.675Z,1.47
2023-03-16T08:58:30.700Z,1.45
2023-03-16T08:59:29.730Z,1.45
2023-03-16T09:00:11.889Z,1.44
2023-03-16T09:01:00.888Z,1.45
2023-03-16T09:01:50.941Z,1.47
2023-03-16T09:02:41.002Z,1.46
2023-03-16T09:03:31.028Z,1.46
2023-03-16T09:04:21.152Z,1.39
2023-03-16T09:05:11.153Z,1.29
2023-03-16T09:06:01.358Z,1.35
2023-03-16T09:07:05.931Z,1.37
2023-03-16T09:07:42.467Z,1.37
2023-03-16T09:08:31.497Z,1.37
2023-03-16T09:09:21.594Z,1.35
2023-03-16T09:10:11.639Z,1.24
2023-03-16T09:11:01.678Z,1.24
2023-03-16T09:11:51.742Z,1.24
2023-03-16T09:12:41.822Z,1.26
2023-03-16T09:13:32.033Z,1.34
2023-03-16T09:14:22.124Z,1.31
2023-03-16T09:15:12.129Z,1.29
2023-03-16T09:16:02.265Z,1.24
2023-03-16T09:16:52.203Z,1.33
2023-03-16T09:17:42.292Z,1.44
2023-03-16T09:18:32.455Z,1.51
2023-03-16T09:19:22.389Z,1.48
2023-03-16T09:20:22.183Z,1.27
2023-03-16T09:21:03.613Z,1.25
2023-03-16T09:21:52.637Z,1.25
2023-03-16T09:22:42.708Z,1.29
2023-03-16T09:23:32.786Z,1.31
2023-03-16T09:24:22.832Z,1.31
2023-03-16T09:25:12.862Z,1.22
2023-03-16T09:26:02.906Z,1.25
2023-03-16T09:26:53.198Z,1.33
2023-03-16T09:27:43.190Z,1.46
2023-03-16T09:28:33.233Z,1.45
2023-03-16T09:29:23.291Z,1.32
2023-03-16T09:30:13.355Z,1.26
2023-03-16T09:31:03.458Z,1.33
2023-03-16T09:31:53.517Z,1.30
2023-03-16T09:32:43.517Z,1.37
2023-03-16T09:33:33.586Z,1.39
2023-03-16T09:35:13.690Z,1.31
2023-03-16T09:36:03.839Z,1.26
2023-03-16T09:36:53.778Z,1.31
2023-03-16T09:37:45.814Z,1.31
2023-03-16T09:38:34.878Z,1.24
2023-03-16T09:39:23.921Z,1.25
2023-03-16T09:40:13.986Z,1.18
2023-03-16T09:41:04.054Z,1.15
2023-03-16T09:41:54.133Z,1.23
2023-03-16T09:42:44.212Z,1.40
2023-03-16T09:43:34.270Z,1.46
2023-03-16T09:44:24.452Z,1.47
2023-03-16T09:45:14.474Z,1.48
2023-03-16T09:46:04.540Z,1.52
2023-03-16T09:46:54.654Z,1.54
2023-03-16T09:47:44.653Z,1.50
2023-03-16T09:48:34.678Z,1.51
2023-03-16T09:49:24.741Z,1.42
2023-03-16T09:50:14.797Z,1.46
2023-03-16T09:51:04.950Z,1.46
2023-03-16T09:51:54.898Z,1.47
2023-03-16T09:52:44.963Z,1.45
2023-03-16T09:53:34.979Z,1.38
2023-03-16T09:54:25.030Z,1.38
2023-03-16T09:55:15.087Z,1.35
2023-03-16T09:56:05.119Z,1.39
2023-03-16T09:56:55.181Z,1.26
2023-03-16T09:57:45.248Z,1.11
2023-03-16T09:58:35.318Z,1.08
2023-03-16T09:59:25.373Z,1.07
2023-03-16T10:00:15.446Z,1.07
2023-03-16T10:01:05.516Z,1.11
2023-03-16T10:01:55.515Z,1.22
2023-03-16T10:02:45.564Z,1.18
2023-03-16T10:03:36.005Z,1.27
2023-03-16T10:04:25.913Z,1.32
2023-03-16T10:05:15.963Z,1.40
2023-03-16T10:06:05.990Z,1.42
2023-03-16T10:06:56.029Z,1.32
2023-03-16T10:07:46.071Z,1.32
2023-03-16T10:08:36.106Z,1.24
2023-03-16T10:09:47.157Z,1.21
2023-03-16T10:10:37.213Z,1.21
2023-03-16T10:11:27.263Z,1.21
2023-03-16T10:11:56.317Z,1.21
2023-03-16T10:12:46.383Z,1.21
2023-03-16T10:13:36.415Z,1.24
2023-03-16T10:14:26.530Z,1.26
2023-03-16T10:15:16.696Z,1.20
2023-03-16T10:16:06.638Z,1.15
2023-03-16T10:16:56.717Z,1.11
2023-03-16T10:17:46.715Z,1.10
2023-03-16T10:18:37.005Z,1.10
2023-03-16T10:19:27.132Z,1.21
2023-03-16T10:20:17.146Z,1.31
2023-03-16T10:21:07.483Z,1.37
2023-03-16T10:21:57.533Z,1.38
2023-03-16T10:22:47.611Z,1.29
2023-03-16T10:23:39.072Z,1.32
2023-03-16T10:24:27.805Z,1.29
2023-03-16T10:25:17.753Z,1.31
2023-03-16T10:26:07.795Z,1.32
2023-03-16T10:26:57.815Z,1.33
2023-03-16T10:27:47.905Z,1.35
2023-03-16T10:28:37.969Z,1.29
2023-03-16T10:29:28.053Z,1.40
2023-03-16T10:30:18.093Z,1.41
2023-03-16T10:31:08.153Z,1.36
2023-03-16T10:31:58.195Z,1.31
2023-03-16T10:32:48.250Z,1.12
2023-03-16T10:33:38.256Z,1.15
2023-03-16T10:34:28.346Z,1.12
2023-03-16T10:35:18.400Z,1.22
2023-03-16T10:36:08.486Z,1.33
2023-03-16T10:36:58.500Z,1.39
2023-03-16T10:37:48.540Z,1.37
2023-03-16T10:38:38.662Z,1.22
2023-03-16T10:39:29.228Z,1.21
2023-03-16T10:40:18.663Z,1.23
2023-03-16T10:41:08.702Z,1.29
2023-03-16T10:41:58.740Z,1.32
2023-03-16T10:42:48.883Z,1.36
2023-03-16T10:43:38.910Z,1.21
2023-03-16T10:44:29.003Z,1.07
2023-03-16T10:45:19.044Z,1.21
2023-03-16T10:46:09.134Z,1.29
2023-03-16T10:46:59.207Z,1.40
2023-03-16T10:47:49.225Z,1.45
2023-03-16T10:48:39.252Z,1.47
2023-03-16T10:49:29.372Z,1.48
2023-03-16T10:50:19.412Z,1.30
2023-03-16T10:51:09.503Z,1.26
2023-03-16T10:51:59.549Z,1.25
2023-03-16T10:52:49.571Z,1.35
2023-03-16T10:53:39.605Z,1.38
2023-03-16T10:54:29.710Z,1.31
2023-03-16T10:55:19.738Z,1.18
2023-03-16T10:56:09.817Z,1.11
2023-03-16T10:56:59.843Z,1.04
2023-03-16T10:57:49.925Z,1.01
2023-03-16T10:58:39.955Z,1.12
2023-03-16T10:59:30.004Z,1.24
2023-03-16T11:00:20.051Z,1.36
2023-03-16T11:01:10.124Z,1.32
2023-03-16T11:02:00.161Z,1.20
2023-03-16T11:02:50.202Z,1.27
2023-03-16T11:03:40.235Z,1.14
2023-03-16T11:04:30.364Z,1.22
2023-03-16T11:05:20.371Z,1.21
2023-03-16T11:06:10.415Z,1.28
2023-03-16T11:07:00.477Z,1.23